Time;durP1;ratioP1;P1;durP2;ratioP2;P2;SDS_P1;SDS_P2;PMS_P1;PMS_P2;Temp;Humidity;BMP_temperature;BMP_pressure;BME280_temperature;BME280_humidity;BME280_pressure;Samples;Min_cycle;Max_cycle;Signal;HPM_P1;HPM_P2
2021/11/14 00:01:29;;;;;;;1.40;1.40;;;7.80;98.00;;;;;;5114113;28;20544;-70
2021/11/14 00:03:56;;;;;;;1.97;1.83;;;7.90;98.00;;;;;;5114411;28;20840;-70
2021/11/14 00:06:25;;;;;;;1.67;1.57;;;7.80;98.00;;;;;;5114573;28;20533;-69
2021/11/14 00:08:52;;;;;;;1.70;1.57;;;7.80;98.00;;;;;;5114445;28;20484;-70
2021/11/14 00:11:20;;;;;;;3.87;1.77;;;7.90;98.00;;;;;;5114466;28;20967;-70
2021/11/14 00:13:49;;;;;;;2.13;1.73;;;7.90;98.00;;;;;;5114183;28;20948;-70
2021/11/14 00:16:19;;;;;;;1.83;1.73;;;8.00;98.00;;;;;;5114164;28;20472;-70
2021/11/14 00:18:46;;;;;;;2.50;1.63;;;8.00;98.00;;;;;;5114260;28;20929;-70
2021/11/14 00:21:17;;;;;;;2.20;2.07;;;8.00;98.00;;;;;;5112701;28;20471;-70
2021/11/14 00:23:46;;;;;;;2.33;2.10;;;8.10;98.00;;;;;;5114256;28;20508;-70
2021/11/14 00:26:13;;;;;;;1.73;1.20;;;8.10;98.00;;;;;;5114143;28;20462;-70
2021/11/14 00:28:42;;;;;;;3.60;2.10;;;8.10;98.00;;;;;;5113961;28;20889;-70
2021/11/14 00:31:09;;;;;;;4.33;2.30;;;8.00;98.00;;;;;;5112791;28;20461;-70
2021/11/14 00:33:36;;;;;;;1.30;1.13;;;8.00;98.00;;;;;;5113934;28;20823;-70
2021/11/14 00:36:04;;;;;;;1.83;1.83;;;8.00;98.00;;;;;;5113996;28;20940;-70
2021/11/14 00:38:31;;;;;;;1.73;1.73;;;8.00;98.00;;;;;;5113945;28;20462;-70
2021/11/14 00:41:00;;;;;;;1.50;1.50;;;8.00;98.00;;;;;;5113754;28;20482;-70
2021/11/14 00:43:27;;;;;;;1.87;1.30;;;8.00;98.00;;;;;;5114026;28;20778;-70
2021/11/14 00:45:57;;;;;;;2.77;2.03;;;8.00;98.00;;;;;;5113973;28;20443;-70
2021/11/14 00:48:24;;;;;;;5.27;2.53;;;8.00;98.00;;;;;;5114010;28;20462;-70
2021/11/14 00:50:51;;;;;;;1.50;1.43;;;8.00;98.00;;;;;;5113621;28;20932;-70
2021/11/14 00:53:20;;;;;;;1.60;1.57;;;8.00;98.00;;;;;;5113808;28;20458;-70
2021/11/14 00:55:48;;;;;;;3.00;2.00;;;7.90;98.00;;;;;;5112989;28;20996;-70
2021/11/14 00:58:17;;;;;;;3.27;1.67;;;8.00;98.00;;;;;;5113614;28;20454;-70
2021/11/14 01:00:44;;;;;;;3.67;1.93;;;7.90;98.00;;;;;;5113338;28;20455;-70
2021/11/14 01:03:14;;;;;;;7.93;2.37;;;7.90;98.00;;;;;;5113481;28;20459;-70
2021/11/14 01:05:42;;;;;;;1.60;1.50;;;7.80;98.00;;;;;;5113269;28;20472;-70
2021/11/14 01:08:11;;;;;;;4.40;2.33;;;7.80;98.00;;;;;;5113307;28;20465;-70
2021/11/14 01:10:42;;;;;;;1.20;1.20;;;7.80;98.00;;;;;;5112763;28;20503;-70
2021/11/14 01:13:11;;;;;;;2.23;2.03;;;7.80;98.00;;;;;;5112573;28;20866;-70
2021/11/14 01:15:40;;;;;;;1.90;1.80;;;7.80;98.00;;;;;;5112821;28;20457;-70
2021/11/14 01:18:10;;;;;;;2.27;1.93;;;7.80;98.00;;;;;;5112854;28;20463;-70
2021/11/14 01:20:41;;;;;;;2.17;2.00;;;7.80;98.00;;;;;;5112979;28;20507;-70
2021/11/14 01:23:11;;;;;;;2.33;2.13;;;7.80;98.00;;;;;;5111791;28;20856;-70
2021/11/14 01:25:39;;;;;;;3.87;2.93;;;7.90;98.00;;;;;;5113096;28;20462;-70
2021/11/14 01:28:07;;;;;;;4.03;1.87;;;7.90;98.00;;;;;;5112918;28;20508;-70
2021/11/14 01:30:36;;;;;;;2.70;2.30;;;7.90;98.00;;;;;;5112802;28;20463;-70
2021/11/14 01:33:07;;;;;;;1.67;1.47;;;7.90;98.00;;;;;;5112873;28;20506;-70
2021/11/14 01:35:35;;;;;;;4.30;2.17;;;7.90;98.00;;;;;;5112663;28;20446;-70
2021/11/14 01:38:02;;;;;;;4.73;2.20;;;7.90;98.00;;;;;;5112623;28;20458;-70
2021/11/14 01:40:33;;;;;;;3.50;2.00;;;8.00;98.00;;;;;;5112710;28;20460;-69
2021/11/14 01:43:01;;;;;;;2.90;2.13;;;8.00;98.00;;;;;;5112555;28;20782;-69
2021/11/14 01:45:28;;;;;;;4.47;1.83;;;8.10;98.00;;;;;;5112675;28;20450;-69
2021/11/14 01:47:56;;;;;;;2.30;2.10;;;8.10;98.00;;;;;;5111058;28;20463;-70
2021/11/14 01:50:25;;;;;;;1.97;1.73;;;8.10;98.00;;;;;;5111462;28;21051;-70
2021/11/14 01:52:53;;;;;;;2.37;1.77;;;8.20;98.00;;;;;;5111599;28;21160;-70
2021/11/14 01:55:24;;;;;;;2.60;1.87;;;8.20;98.00;;;;;;5112552;28;20528;-70
2021/11/14 01:57:51;;;;;;;1.83;1.73;;;8.10;98.00;;;;;;5112717;28;20463;-70
2021/11/14 02:00:23;;;;;;;2.70;2.47;;;8.20;98.00;;;;;;5112680;28;20863;-70
2021/11/14 02:02:50;;;;;;;3.87;2.53;;;8.10;98.00;;;;;;5112616;28;21025;-70
2021/11/14 02:05:22;;;;;;;2.43;1.80;;;8.10;98.00;;;;;;5112433;28;20883;-70
2021/11/14 02:07:51;;;;;;;3.10;1.67;;;8.10;98.00;;;;;;5112411;28;20460;-70
2021/11/14 02:10:18;;;;;;;2.30;1.90;;;8.10;98.00;;;;;;5112035;28;20480;-70
2021/11/14 02:12:45;;;;;;;1.93;1.70;;;8.00;98.00;;;;;;5112220;28;20524;-70
2021/11/14 02:15:12;;;;;;;3.50;2.80;;;8.10;98.00;;;;;;5112019;28;20468;-70
2021/11/14 02:17:40;;;;;;;7.37;1.53;;;8.10;98.00;;;;;;5112123;28;20453;-70
2021/11/14 02:20:10;;;;;;;3.83;1.60;;;8.10;98.00;;;;;;5112068;28;20513;-69
2021/11/14 02:22:38;;;;;;;3.80;1.73;;;8.00;98.00;;;;;;5111761;28;20497;-70
2021/11/14 02:25:06;;;;;;;2.00;1.90;;;8.00;98.00;;;;;;5111677;28;20457;-69
2021/11/14 02:27:34;;;;;;;3.43;1.90;;;8.00;98.00;;;;;;5112125;28;20507;-70
2021/11/14 02:30:03;;;;;;;2.17;1.80;;;8.00;98.00;;;;;;5112002;28;20459;-70
2021/11/14 02:32:30;;;;;;;2.00;1.43;;;8.00;98.00;;;;;;5112059;28;20451;-70
2021/11/14 02:34:57;;;;;;;2.60;1.93;;;7.90;98.00;;;;;;5111996;28;20443;-70
2021/11/14 02:37:26;;;;;;;3.77;2.03;;;7.90;98.00;;;;;;5111998;28;20451;-70
2021/11/14 02:39:53;;;;;;;1.80;1.40;;;7.80;98.00;;;;;;5111826;28;20448;-70
2021/11/14 02:42:20;;;;;;;1.37;1.33;;;8.00;98.00;;;;;;5111852;28;20489;-70
2021/11/14 02:44:47;;;;;;;3.20;1.90;;;8.10;98.00;;;;;;5111884;28;20506;-70
2021/11/14 02:47:14;;;;;;;1.90;1.50;;;8.10;98.00;;;;;;5111976;28;20459;-69
2021/11/14 02:49:42;;;;;;;2.30;2.03;;;8.20;98.00;;;;;;5110585;28;20443;-69
2021/11/14 02:52:09;;;;;;;1.90;1.57;;;8.20;98.00;;;;;;5111144;28;20942;-70
2021/11/14 02:54:39;;;;;;;1.70;1.60;;;8.20;98.00;;;;;;5111265;28;20461;-70
2021/11/14 02:57:08;;;;;;;2.07;1.57;;;8.30;98.00;;;;;;5110035;28;20460;-69
2021/11/14 02:59:35;;;;;;;3.20;1.70;;;8.20;98.00;;;;;;5110726;28;20483;-69
2021/11/14 03:02:03;;;;;;;2.10;2.00;;;8.20;98.00;;;;;;5111843;28;20983;-69
2021/11/14 03:04:31;;;;;;;1.20;1.20;;;8.20;98.00;;;;;;5111824;28;20456;-70
2021/11/14 03:07:00;;;;;;;1.20;1.20;;;8.20;98.00;;;;;;5112018;28;21026;-69
2021/11/14 03:09:28;;;;;;;1.50;1.50;;;8.20;98.00;;;;;;5111850;28;20456;-70
2021/11/14 03:11:59;;;;;;;3.40;2.20;;;8.20;98.00;;;;;;5111771;28;20521;-69
2021/11/14 03:14:27;;;;;;;2.13;1.97;;;8.20;98.00;;;;;;5111990;28;20463;-70
2021/11/14 03:16:55;;;;;;;1.70;1.27;;;8.20;98.00;;;;;;5111953;28;20485;-70
2021/11/14 03:19:23;;;;;;;2.30;1.40;;;8.20;98.00;;;;;;5111761;28;20457;-70
2021/11/14 03:21:53;;;;;;;1.63;1.47;;;8.20;98.00;;;;;;5111784;28;20482;-69
2021/11/14 03:24:20;;;;;;;1.80;1.30;;;8.20;98.00;;;;;;5110081;28;20506;-70
2021/11/14 03:26:47;;;;;;;1.37;1.33;;;8.20;98.00;;;;;;5111670;28;20458;-70
2021/11/14 03:29:16;;;;;;;2.57;2.07;;;8.10;98.00;;;;;;5111376;28;20479;-69
2021/11/14 03:31:43;;;;;;;2.20;1.60;;;8.10;98.00;;;;;;5111373;28;20868;-69
2021/11/14 03:34:10;;;;;;;1.73;1.60;;;8.10;98.00;;;;;;5111546;28;20850;-69
2021/11/14 03:36:37;;;;;;;2.20;1.57;;;8.10;98.00;;;;;;5110339;28;20461;-70
2021/11/14 03:39:07;;;;;;;1.60;1.60;;;8.10;98.00;;;;;;5113809;28;20457;-70
2021/11/14 03:41:38;;;;;;;1.83;1.40;;;8.10;98.00;;;;;;5114916;28;20453;-70
2021/11/14 03:44:08;;;;;;;2.30;1.47;;;8.10;98.00;;;;;;5114992;28;20451;-70
2021/11/14 03:46:36;;;;;;;4.57;1.70;;;8.00;98.00;;;;;;5114745;28;20455;-69
2021/11/14 03:49:05;;;;;;;3.20;2.07;;;8.00;98.00;;;;;;5114949;28;20933;-70
2021/11/14 03:51:33;;;;;;;1.60;1.53;;;7.90;98.00;;;;;;5114767;28;20466;-70
2021/11/14 03:54:00;;;;;;;1.80;1.70;;;8.00;98.00;;;;;;5114814;28;20455;-70
2021/11/14 03:56:29;;;;;;;1.83;1.73;;;8.00;98.00;;;;;;5114823;28;20456;-70
2021/11/14 03:58:56;;;;;;;3.73;1.60;;;8.00;98.00;;;;;;5114671;28;20780;-69
2021/11/14 04:01:25;;;;;;;1.53;1.40;;;8.00;98.00;;;;;;5114719;28;20513;-70
2021/11/14 04:03:53;;;;;;;2.40;1.63;;;8.00;98.00;;;;;;5114620;28;21065;-69
2021/11/14 04:06:22;;;;;;;3.00;1.87;;;8.00;98.00;;;;;;5114631;28;20462;-70
2021/11/14 04:08:48;;;;;;;1.80;1.80;;;8.00;98.00;;;;;;5114679;28;20467;-69
2021/11/14 04:11:16;;;;;;;4.37;3.07;;;8.00;98.00;;;;;;5114467;28;20509;-70
2021/11/14 04:13:43;;;;;;;1.87;1.50;;;8.00;98.00;;;;;;5114460;28;20938;-70
2021/11/14 04:16:13;;;;;;;2.70;1.73;;;7.90;98.00;;;;;;5114520;28;20462;-70
2021/11/14 04:18:40;;;;;;;1.70;1.43;;;7.90;98.00;;;;;;5114396;28;20484;-70
2021/11/14 04:21:11;;;;;;;1.80;1.73;;;8.00;98.00;;;;;;5114402;28;20999;-69
2021/11/14 04:23:39;;;;;;;3.20;2.03;;;8.00;98.00;;;;;;5114507;28;20487;-70
2021/11/14 04:26:08;;;;;;;1.57;1.50;;;7.90;98.00;;;;;;5114419;28;20455;-70
2021/11/14 04:28:36;;;;;;;2.33;1.63;;;7.90;98.00;;;;;;5114493;28;20451;-70
2021/11/14 04:31:03;;;;;;;1.43;1.33;;;7.90;98.00;;;;;;5113046;28;20504;-70
2021/11/14 04:33:32;;;;;;;1.80;1.70;;;7.90;98.00;;;;;;5114049;28;20507;-70
2021/11/14 04:36:01;;;;;;;1.77;1.67;;;7.90;98.00;;;;;;5114187;28;20460;-69
2021/11/14 04:38:30;;;;;;;1.60;1.50;;;7.90;98.00;;;;;;5113938;28;20455;-69
2021/11/14 04:40:58;;;;;;;1.20;1.20;;;7.90;98.00;;;;;;5112651;28;20540;-70
2021/11/14 04:43:27;;;;;;;1.77;1.50;;;7.90;98.00;;;;;;5113840;28;20548;-70
2021/11/14 04:45:55;;;;;;;1.77;1.73;;;8.00;98.00;;;;;;5113579;28;20460;-70
2021/11/14 04:48:24;;;;;;;1.67;1.40;;;8.00;98.00;;;;;;5113663;28;20814;-70
2021/11/14 04:50:52;;;;;;;1.57;1.47;;;8.00;98.00;;;;;;5113666;27;20535;-70
2021/11/14 04:53:20;;;;;;;1.47;1.33;;;8.00;98.00;;;;;;5113571;28;20448;-69
2021/11/14 04:55:49;;;;;;;1.77;1.67;;;7.90;98.00;;;;;;5113489;28;20456;-69
2021/11/14 04:58:16;;;;;;;2.23;1.60;;;7.90;98.00;;;;;;5112196;28;20560;-70
2021/11/14 05:00:47;;;;;;;2.77;1.60;;;7.90;98.00;;;;;;5113328;28;20457;-70
2021/11/14 05:03:15;;;;;;;1.30;1.10;;;7.80;98.00;;;;;;5113449;28;20487;-69
2021/11/14 05:05:43;;;;;;;2.23;1.60;;;7.80;98.00;;;;;;5113119;28;20452;-70
2021/11/14 05:08:11;;;;;;;1.70;1.70;;;7.80;98.00;;;;;;5113461;28;20834;-70
2021/11/14 05:10:39;;;;;;;1.37;1.33;;;7.80;98.00;;;;;;5112122;28;20480;-70
2021/11/14 05:13:07;;;;;;;2.27;1.60;;;7.80;98.00;;;;;;5113056;28;20469;-70
2021/11/14 05:15:35;;;;;;;2.43;1.77;;;7.70;98.00;;;;;;5113151;28;20500;-70
2021/11/14 05:18:02;;;;;;;2.23;1.67;;;7.70;98.00;;;;;;5095292;28;20973;-70
2021/11/14 05:20:29;;;;;;;1.40;1.37;;;7.70;98.00;;;;;;5113294;28;20520;-70
2021/11/14 05:22:57;;;;;;;1.50;1.30;;;7.70;98.00;;;;;;5113232;28;20520;-69
2021/11/14 05:25:24;;;;;;;1.60;1.50;;;7.70;98.00;;;;;;5113121;28;20485;-69
2021/11/14 05:27:51;;;;;;;2.23;2.07;;;7.70;98.00;;;;;;5113185;28;20814;-69
2021/11/14 05:30:20;;;;;;;1.53;1.43;;;7.70;98.00;;;;;;5113023;28;20512;-69
2021/11/14 05:32:47;;;;;;;1.20;1.20;;;7.60;98.00;;;;;;5113058;28;20924;-69
2021/11/14 05:35:15;;;;;;;1.83;1.53;;;7.60;98.00;;;;;;5112961;28;20576;-69
2021/11/14 05:37:43;;;;;;;1.90;1.63;;;7.60;98.00;;;;;;5113033;28;20526;-70
2021/11/14 05:40:11;;;;;;;1.73;1.60;;;7.50;98.00;;;;;;5112859;28;20524;-70
2021/11/14 05:42:41;;;;;;;2.53;2.37;;;7.60;98.00;;;;;;5112841;28;20532;-70
2021/11/14 05:45:10;;;;;;;1.77;1.17;;;7.50;98.00;;;;;;5112686;28;20872;-70
2021/11/14 05:47:42;;;;;;;1.70;1.20;;;7.50;98.00;;;;;;5112695;28;20456;-70
2021/11/14 05:50:11;;;;;;;3.10;1.60;;;7.40;98.00;;;;;;5111374;28;20487;-70
2021/11/14 05:52:41;;;;;;;1.60;1.50;;;7.40;98.00;;;;;;5112449;28;20511;-70
2021/11/14 05:55:09;;;;;;;1.30;1.10;;;7.40;98.00;;;;;;5112546;28;20458;-70
2021/11/14 05:57:46;;;;;;;1.50;1.20;;;7.40;98.00;;;;;;5112535;28;20505;-70
2021/11/14 06:00:18;;;;;;;3.13;1.60;;;7.50;98.00;;;;;;5110709;28;20450;-71
2021/11/14 06:02:49;;;;;;;1.70;1.20;;;7.50;98.00;;;;;;5112475;28;20490;-70
2021/11/14 06:05:16;;;;;;;1.63;1.50;;;7.50;98.00;;;;;;5112221;28;20520;-71
2021/11/14 06:07:45;;;;;;;1.60;1.50;;;7.50;98.00;;;;;;5112247;28;20517;-71
2021/11/14 06:10:13;;;;;;;3.20;1.57;;;7.60;98.00;;;;;;5112238;28;20466;-70
2021/11/14 06:12:41;;;;;;;1.63;1.20;;;7.60;98.00;;;;;;5112192;28;20512;-71
2021/11/14 06:15:10;;;;;;;2.13;1.43;;;7.70;98.00;;;;;;5112091;28;20505;-71
2021/11/14 06:17:38;;;;;;;1.50;1.30;;;7.60;98.00;;;;;;5112228;28;20749;-71
2021/11/14 06:20:07;;;;;;;1.47;1.40;;;7.60;98.00;;;;;;5112192;28;20457;-70
2021/11/14 06:22:36;;;;;;;1.60;1.40;;;7.60;98.00;;;;;;5112131;28;20481;-71
2021/11/14 06:25:06;;;;;;;1.10;1.00;;;7.60;98.00;;;;;;5112069;28;20462;-70
2021/11/14 06:27:33;;;;;;;2.03;1.40;;;7.50;98.00;;;;;;5094694;28;20453;-71
2021/11/14 06:30:02;;;;;;;1.10;1.10;;;7.40;98.00;;;;;;5112060;28;20461;-71
2021/11/14 06:32:29;;;;;;;1.10;1.10;;;7.40;98.00;;;;;;5112212;28;21023;-71
2021/11/14 06:34:59;;;;;;;1.70;1.30;;;7.40;98.00;;;;;;5112089;28;20487;-71
2021/11/14 06:37:27;;;;;;;2.70;2.03;;;7.40;98.00;;;;;;5112206;28;20455;-71
2021/11/14 06:39:54;;;;;;;2.23;1.60;;;7.40;98.00;;;;;;5111934;28;20916;-71
2021/11/14 06:42:22;;;;;;;1.93;1.83;;;7.50;98.00;;;;;;5112179;28;20456;-70
2021/11/14 06:44:49;;;;;;;1.40;1.40;;;7.50;98.00;;;;;;5111957;28;20466;-71
2021/11/14 06:47:18;;;;;;;2.30;1.20;;;7.50;98.00;;;;;;5112045;28;20515;-70
2021/11/14 06:49:47;;;;;;;2.20;1.47;;;7.50;98.00;;;;;;5110765;28;20536;-70
2021/11/14 06:52:15;;;;;;;2.10;2.00;;;7.60;98.00;;;;;;5112179;28;20464;-71
2021/11/14 06:54:43;;;;;;;1.17;1.10;;;7.70;98.00;;;;;;5112008;28;20867;-71
2021/11/14 06:57:10;;;;;;;1.30;1.20;;;7.70;98.00;;;;;;5112089;28;20526;-71
2021/11/14 06:59:38;;;;;;;1.40;1.10;;;7.60;98.00;;;;;;5112267;28;20447;-71
2021/11/14 07:02:06;;;;;;;2.50;1.50;;;7.60;98.00;;;;;;5111725;28;20493;-71
2021/11/14 07:04:33;;;;;;;1.10;1.00;;;7.60;98.00;;;;;;5111788;28;20574;-71
2021/11/14 07:07:00;;;;;;;1.50;1.33;;;7.60;98.00;;;;;;5111628;28;20489;-71
2021/11/14 07:09:28;;;;;;;1.40;1.27;;;7.60;98.00;;;;;;5111904;28;20453;-71
2021/11/14 07:11:56;;;;;;;1.30;1.20;;;7.70;98.00;;;;;;5112070;28;20508;-71
2021/11/14 07:14:24;;;;;;;1.50;1.17;;;7.60;98.00;;;;;;5115473;28;20452;-71
2021/11/14 07:16:53;;;;;;;2.07;1.53;;;7.50;98.00;;;;;;5115466;28;20457;-71
2021/11/14 07:19:23;;;;;;;2.60;1.63;;;7.50;98.00;;;;;;5115414;28;20480;-70
2021/11/14 07:21:50;;;;;;;1.70;1.50;;;7.80;98.00;;;;;;5115305;28;20463;-70
2021/11/14 07:24:20;;;;;;;3.50;1.30;;;7.80;98.00;;;;;;5115226;28;20481;-70
2021/11/14 07:26:48;;;;;;;2.47;1.90;;;7.80;98.00;;;;;;5115172;28;20452;-70
2021/11/14 07:29:16;;;;;;;1.20;1.20;;;7.60;98.00;;;;;;5115300;28;20530;-69
2021/11/14 07:31:43;;;;;;;1.67;1.67;;;7.60;98.00;;;;;;5115212;28;20747;-70
2021/11/14 07:34:10;;;;;;;3.00;1.93;;;7.60;98.00;;;;;;5115347;28;20462;-70
2021/11/14 07:36:37;;;;;;;1.50;1.33;;;7.60;98.00;;;;;;5115150;28;20460;-70
2021/11/14 07:39:05;;;;;;;1.67;1.40;;;7.70;98.00;;;;;;5115115;28;20510;-70
2021/11/14 07:41:32;;;;;;;1.10;1.10;;;7.80;98.00;;;;;;5115155;28;20508;-70
2021/11/14 07:44:00;;;;;;;5.40;2.00;;;7.90;98.00;;;;;;5115078;28;20546;-70
2021/11/14 07:46:29;;;;;;;3.10;1.50;;;7.90;98.00;;;;;;5115006;28;20491;-70
2021/11/14 07:48:57;;;;;;;1.87;1.43;;;8.00;98.00;;;;;;5115000;28;20504;-70
2021/11/14 07:51:24;;;;;;;1.30;1.23;;;8.00;98.00;;;;;;5114977;28;20509;-70
2021/11/14 07:53:51;;;;;;;1.97;1.87;;;8.00;98.00;;;;;;5114877;28;20505;-70
2021/11/14 07:56:18;;;;;;;1.47;1.47;;;8.00;98.00;;;;;;5114548;28;21175;-70
2021/11/14 07:58:45;;;;;;;1.87;1.60;;;8.00;98.00;;;;;;5114876;28;20519;-70
2021/11/14 08:01:12;;;;;;;1.20;1.20;;;8.10;98.00;;;;;;5114717;28;20472;-70
2021/11/14 08:03:43;;;;;;;1.40;1.30;;;8.10;98.00;;;;;;5114676;28;20535;-70
2021/11/14 08:06:10;;;;;;;1.20;1.20;;;8.30;98.00;;;;;;5114818;28;20458;-70
2021/11/14 08:08:37;;;;;;;1.60;1.30;;;8.40;98.00;;;;;;5114740;28;20464;-70
2021/11/14 08:11:04;;;;;;;2.23;2.03;;;8.50;98.00;;;;;;5114685;28;20469;-70
2021/11/14 08:13:34;;;;;;;2.57;1.47;;;8.50;98.00;;;;;;5114798;28;20884;-70
2021/11/14 08:16:01;;;;;;;3.43;1.87;;;8.50;98.00;;;;;;5114427;28;20527;-72
2021/11/14 08:18:29;;;;;;;1.60;1.07;;;8.50;98.00;;;;;;5114493;28;21015;-71
2021/11/14 08:20:57;;;;;;;2.77;2.47;;;8.50;98.00;;;;;;5113731;28;20513;-71
2021/11/14 08:23:24;;;;;;;1.60;1.17;;;8.50;98.00;;;;;;5113145;28;21090;-70
2021/11/14 08:25:51;;;;;;;1.60;1.50;;;8.50;98.00;;;;;;5113607;28;20453;-70
2021/11/14 08:28:19;;;;;;;2.00;1.63;;;8.70;98.00;;;;;;5114053;28;20484;-69
2021/11/14 08:30:46;;;;;;;2.47;2.27;;;8.60;98.00;;;;;;5113961;28;20470;-70
2021/11/14 08:33:13;;;;;;;2.97;2.33;;;8.60;98.00;;;;;;5114086;28;20462;-70
2021/11/14 08:35:40;;;;;;;1.93;1.73;;;8.60;98.00;;;;;;5113787;28;20494;-71
2021/11/14 08:38:09;;;;;;;1.67;1.33;;;8.60;98.00;;;;;;5114075;28;20460;-69
2021/11/14 08:40:38;;;;;;;1.63;1.57;;;8.70;98.00;;;;;;5114003;28;20487;-70
2021/11/14 08:43:08;;;;;;;1.43;1.30;;;8.70;98.00;;;;;;5113688;28;20491;-70
2021/11/14 08:45:36;;;;;;;1.77;1.23;;;8.90;98.00;;;;;;5113827;28;20455;-70
2021/11/14 08:48:04;;;;;;;1.70;1.60;;;9.10;98.00;;;;;;5113688;28;20476;-70
2021/11/14 08:50:32;;;;;;;1.83;1.23;;;9.20;98.00;;;;;;5113796;28;20497;-71
2021/11/14 08:53:00;;;;;;;3.00;2.30;;;9.40;98.00;;;;;;5112289;28;20459;-69
2021/11/14 08:55:30;;;;;;;1.10;1.00;;;9.60;98.00;;;;;;5113740;28;20451;-70
2021/11/14 08:57:59;;;;;;;1.10;1.00;;;9.70;98.00;;;;;;5113650;28;20446;-70
2021/11/14 09:00:29;;;;;;;1.37;1.33;;;9.90;98.00;;;;;;5113585;28;20867;-70
2021/11/14 09:02:58;;;;;;;1.60;1.40;;;10.90;98.00;;;;;;5113679;28;20474;-70
2021/11/14 09:05:26;;;;;;;1.53;1.40;;;11.80;98.00;;;;;;5113257;28;20488;-70
2021/11/14 09:07:53;;;;;;;1.93;1.30;;;12.10;98.00;;;;;;5113418;28;20463;-70
2021/11/14 09:10:21;;;;;;;2.53;1.50;;;12.00;98.00;;;;;;5113411;28;20455;-70
2021/11/14 09:12:55;;;;;;;1.63;1.50;;;11.80;98.00;;;;;;5110614;28;20516;-68
2021/11/14 09:15:24;;;;;;;2.13;1.83;;;11.50;98.00;;;;;;5091643;28;20540;-68
2021/11/14 09:17:51;;;;;;;2.53;1.77;;;11.10;98.00;;;;;;5091372;28;20456;-66
2021/11/14 09:20:18;;;;;;;3.10;1.63;;;10.90;98.00;;;;;;5092012;28;20946;-68
2021/11/14 09:22:46;;;;;;;3.30;1.90;;;10.60;98.00;;;;;;5100964;28;20448;-70
2021/11/14 09:25:14;;;;;;;1.60;1.50;;;10.50;98.00;;;;;;5092151;28;20498;-69
2021/11/14 09:27:41;;;;;;;2.80;1.33;;;10.50;98.00;;;;;;5092283;28;20456;-71
2021/11/14 09:30:11;;;;;;;3.23;1.60;;;10.50;98.00;;;;;;5109959;28;20450;-70
2021/11/14 09:32:40;;;;;;;2.43;2.07;;;10.60;98.00;;;;;;5108460;28;20930;-70
2021/11/14 09:35:08;;;;;;;1.27;1.23;;;10.40;98.00;;;;;;5107477;28;20593;-71
2021/11/14 09:37:35;;;;;;;3.47;1.87;;;10.50;98.00;;;;;;5100398;28;20458;-71
2021/11/14 09:40:03;;;;;;;1.40;1.20;;;10.30;98.00;;;;;;5096638;28;20488;-70
2021/11/14 09:42:31;;;;;;;4.03;1.47;;;10.30;98.00;;;;;;5099923;28;20957;-70
2021/11/14 09:44:58;;;;;;;1.40;1.30;;;10.30;98.00;;;;;;5091367;28;20494;-70
2021/11/14 09:47:27;;;;;;;2.33;1.97;;;10.40;98.00;;;;;;5108162;28;20487;-70
2021/11/14 09:49:58;;;;;;;1.50;1.47;;;10.50;98.00;;;;;;5087828;28;20962;-69
2021/11/14 09:52:26;;;;;;;2.27;1.43;;;10.60;98.00;;;;;;5099380;28;21006;-70
2021/11/14 09:54:53;;;;;;;1.50;1.37;;;10.60;98.00;;;;;;5100596;28;20467;-69
2021/11/14 09:57:20;;;;;;;3.60;2.07;;;10.40;98.00;;;;;;5090984;28;20537;-69
2021/11/14 09:59:47;;;;;;;1.80;1.67;;;10.40;98.00;;;;;;5092538;28;20466;-70
2021/11/14 10:02:15;;;;;;;1.50;1.40;;;10.40;98.00;;;;;;5108381;28;20447;-69
2021/11/14 10:04:43;;;;;;;1.20;1.10;;;10.30;98.00;;;;;;5099693;28;20595;-69
2021/11/14 10:07:14;;;;;;;5.10;1.60;;;10.40;98.00;;;;;;5099165;28;20454;-71
2021/11/14 10:09:44;;;;;;;1.50;1.40;;;10.40;98.00;;;;;;5099881;28;20460;-70
2021/11/14 10:12:14;;;;;;;2.17;1.87;;;10.40;98.00;;;;;;5097095;28;20470;-68
2021/11/14 10:14:43;;;;;;;3.33;1.97;;;10.70;98.00;;;;;;5083259;28;20464;-69
2021/11/14 10:17:16;;;;;;;1.43;1.30;;;11.20;98.00;;;;;;5089648;28;20510;-69
2021/11/14 10:19:45;;;;;;;1.40;1.30;;;11.80;98.00;;;;;;5099205;28;20505;-71
2021/11/14 10:22:12;;;;;;;1.30;1.10;;;12.50;98.00;;;;;;5096328;28;20474;-70
2021/11/14 10:24:39;;;;;;;4.23;2.27;;;13.10;98.00;;;;;;5098808;28;20861;-71
2021/11/14 10:27:11;;;;;;;1.60;1.43;;;13.40;98.00;;;;;;5079744;28;20459;-70
2021/11/14 10:29:39;;;;;;;2.67;1.73;;;13.10;98.00;;;;;;5101267;28;20505;-69
2021/11/14 10:32:15;;;;;;;2.53;2.10;;;12.60;98.00;;;;;;5099512;28;20452;-69
2021/11/14 10:34:48;;;;;;;2.50;1.97;;;12.30;98.00;;;;;;5107215;28;20504;-69
2021/11/14 10:37:16;;;;;;;3.93;1.90;;;11.90;98.00;;;;;;5099783;28;20452;-70
2021/11/14 10:39:44;;;;;;;2.77;1.40;;;11.70;98.00;;;;;;5098636;28;20488;-69
2021/11/14 10:42:18;;;;;;;2.43;1.67;;;11.50;98.00;;;;;;5107075;28;20582;-69
2021/11/14 10:44:50;;;;;;;4.20;1.80;;;11.40;98.00;;;;;;5091949;28;20489;-70
2021/11/14 10:47:22;;;;;;;1.60;1.43;;;11.30;98.00;;;;;;5093709;28;20464;-70
2021/11/14 10:49:56;;;;;;;3.10;1.73;;;11.30;98.00;;;;;;5101312;28;20935;-70
2021/11/14 10:52:25;;;;;;;1.67;1.50;;;11.20;98.00;;;;;;5111722;28;20953;-71
2021/11/14 10:54:55;;;;;;;2.10;1.80;;;11.30;98.00;;;;;;5094385;28;20457;-70
2021/11/14 10:57:25;;;;;;;2.60;2.03;;;11.20;98.00;;;;;;5103105;28;20988;-70
2021/11/14 10:59:53;;;;;;;2.17;2.00;;;11.30;98.00;;;;;;5102951;28;20943;-70
2021/11/14 11:02:23;;;;;;;3.17;1.90;;;11.40;98.00;;;;;;5086401;28;20515;-70
2021/11/14 11:05:08;;;;;;;1.93;1.83;;;11.40;98.00;;;;;;5085572;28;20483;-70
2021/11/14 11:07:35;;;;;;;1.50;1.30;;;11.50;98.00;;;;;;5097175;28;21069;-69
2021/11/14 11:10:04;;;;;;;2.00;1.73;;;11.50;98.00;;;;;;5101901;28;20553;-70
2021/11/14 11:12:32;;;;;;;1.60;1.60;;;11.60;98.00;;;;;;5094154;28;20953;-70
2021/11/14 11:15:01;;;;;;;1.67;1.57;;;11.50;98.00;;;;;;5094019;28;20467;-69
2021/11/14 11:17:29;;;;;;;3.67;1.90;;;11.40;98.00;;;;;;5096880;28;20560;-69
2021/11/14 11:19:57;;;;;;;2.57;2.33;;;11.30;98.00;;;;;;5110826;28;20455;-70
2021/11/14 11:22:26;;;;;;;1.70;1.60;;;11.20;98.00;;;;;;5108223;28;20456;-70
2021/11/14 11:24:55;;;;;;;1.87;1.80;;;11.20;98.00;;;;;;5094132;28;20472;-69
2021/11/14 11:27:22;;;;;;;1.50;1.33;;;11.20;98.00;;;;;;5096987;28;20471;-69
2021/11/14 11:29:49;;;;;;;1.93;1.50;;;11.10;98.00;;;;;;5102641;28;20459;-68
2021/11/14 11:32:19;;;;;;;2.43;2.07;;;11.00;98.00;;;;;;5099757;28;20465;-69
2021/11/14 11:34:46;;;;;;;3.63;1.87;;;11.10;98.00;;;;;;5095481;28;20463;-69
2021/11/14 11:37:15;;;;;;;2.07;1.73;;;11.30;98.00;;;;;;5100609;28;20458;-68
2021/11/14 11:39:44;;;;;;;2.07;1.83;;;11.40;98.00;;;;;;5096649;28;21018;-69
2021/11/14 11:42:13;;;;;;;2.03;1.73;;;11.30;98.00;;;;;;5101473;28;20451;-70
2021/11/14 11:44:41;;;;;;;5.23;1.60;;;11.30;98.00;;;;;;5100232;28;20497;-70
2021/11/14 11:47:12;;;;;;;3.20;1.87;;;11.40;98.00;;;;;;5092995;28;20483;-70
2021/11/14 11:49:44;;;;;;;1.50;1.50;;;11.30;98.00;;;;;;5092510;28;20463;-70
2021/11/14 11:52:18;;;;;;;1.87;1.63;;;11.30;98.00;;;;;;5102768;28;20459;-69
2021/11/14 11:54:49;;;;;;;1.67;1.30;;;11.30;98.00;;;;;;5107051;28;20868;-70
2021/11/14 11:57:17;;;;;;;2.40;1.87;;;11.30;98.00;;;;;;5111056;28;20454;-69
2021/11/14 11:59:48;;;;;;;1.57;1.40;;;11.30;98.00;;;;;;5097128;28;20496;-70
2021/11/14 12:02:17;;;;;;;3.10;1.50;;;11.20;98.00;;;;;;5097886;28;20454;-70
2021/11/14 12:04:48;;;;;;;2.07;1.80;;;11.10;98.00;;;;;;5105887;28;20544;-70
2021/11/14 12:07:19;;;;;;;2.30;1.60;;;11.10;98.00;;;;;;5087678;28;20459;-70
2021/11/14 12:09:51;;;;;;;1.57;1.33;;;11.10;98.00;;;;;;5094486;28;20487;-70
2021/11/14 12:12:24;;;;;;;1.40;1.20;;;11.00;98.00;;;;;;5107733;28;20520;-69
2021/11/14 12:15:13;;;;;;;4.13;2.23;;;11.00;98.00;;;;;;5101459;28;20459;-70
2021/11/14 12:17:41;;;;;;;1.40;1.20;;;11.00;98.00;;;;;;5101158;28;20449;-70
2021/11/14 12:20:12;;;;;;;4.33;1.93;;;10.90;98.00;;;;;;5093040;28;20869;-69
2021/11/14 12:22:44;;;;;;;1.73;1.73;;;10.90;98.00;;;;;;5101752;28;20457;-69
2021/11/14 12:25:24;;;;;;;1.30;1.30;;;10.80;98.00;;;;;;5101621;28;20817;-68
2021/11/14 12:28:08;;;;;;;1.60;1.33;;;10.90;98.00;;;;;;5095318;28;20460;-68
2021/11/14 12:30:38;;;;;;;2.10;1.37;;;11.00;98.00;;;;;;5105775;28;20498;-68
2021/11/14 12:33:10;;;;;;;3.67;2.03;;;10.90;98.00;;;;;;5096780;28;20459;-68
2021/11/14 12:35:46;;;;;;;1.67;1.40;;;11.00;98.00;;;;;;5104861;28;20482;-69
2021/11/14 12:38:24;;;;;;;1.60;1.50;;;11.00;98.00;;;;;;5107024;28;20455;-69
2021/11/14 12:40:57;;;;;;;1.63;1.37;;;11.10;98.00;;;;;;5109162;28;20499;-69
2021/11/14 12:43:28;;;;;;;5.00;1.70;;;11.20;98.00;;;;;;5100426;28;20494;-70
2021/11/14 12:45:59;;;;;;;3.27;1.70;;;11.10;98.00;;;;;;5106648;28;20513;-69
2021/11/14 12:48:29;;;;;;;2.20;1.83;;;11.10;98.00;;;;;;5101646;28;20511;-69
2021/11/14 12:51:05;;;;;;;1.30;1.20;;;11.20;98.00;;;;;;5095770;28;20541;-69
2021/11/14 12:53:48;;;;;;;2.13;1.50;;;11.20;98.00;;;;;;5082338;28;20902;-69
2021/11/14 12:56:23;;;;;;;1.67;1.50;;;11.20;98.00;;;;;;5092007;28;20825;-69
2021/11/14 12:58:51;;;;;;;4.10;1.60;;;11.20;98.00;;;;;;5108937;28;20458;-69
2021/11/14 13:01:23;;;;;;;1.53;1.30;;;11.40;98.00;;;;;;5105871;28;20949;-69